Time;durP1;ratioP1;P1;durP2;ratioP2;P2;SDS_P1;SDS_P2;PMS_P1;PMS_P2;Temp;Humidity;BMP_temperature;BMP_pressure;BME280_temperature;BME280_humidity;BME280_pressure;Samples;Min_cycle;Max_cycle;Signal;HPM_P1;HPM_P2
2021/08/24 00:00:00;;;;;;;42.53;39.63;;;;;;;14.42;100.00;103036.41;1993740;72;26197;-82
2021/08/24 00:02:30;;;;;;;43.97;40.87;;;;;;;14.58;100.00;103034.99;1993662;72;26200;-81
2021/08/24 00:05:01;;;;;;;43.97;41.27;;;;;;;14.71;100.00;103032.36;1993871;72;26235;-81
2021/08/24 00:07:31;;;;;;;44.87;42.00;;;;;;;14.64;100.00;103028.89;1993912;72;26644;-81
2021/08/24 00:10:01;;;;;;;46.83;43.87;;;;;;;14.48;100.00;103032.59;1993721;72;26233;-81
2021/08/24 00:12:31;;;;;;;47.00;44.00;;;;;;;14.27;100.00;103033.37;1993753;72;26180;-82
2021/08/24 00:15:02;;;;;;;47.03;44.10;;;;;;;14.12;100.00;103036.22;1993673;72;26231;-82
2021/08/24 00:17:32;;;;;;;44.47;41.53;;;;;;;14.20;100.00;103037.77;1993846;72;26265;-81
2021/08/24 00:20:02;;;;;;;46.07;43.13;;;;;;;14.12;100.00;103042.36;1993792;72;26258;-82
2021/08/24 00:22:32;;;;;;;43.67;40.63;;;;;;;14.12;100.00;103040.97;1993643;72;26278;-82
2021/08/24 00:25:02;;;;;;;45.40;42.40;;;;;;;14.06;100.00;103039.21;1993647;72;26216;-82
2021/08/24 00:27:32;;;;;;;45.13;42.10;;;;;;;13.95;100.00;103035.94;1993774;72;26188;-81
2021/08/24 00:30:02;;;;;;;43.90;41.10;;;;;;;13.86;100.00;103036.09;1993757;72;26704;-81
2021/08/24 00:32:32;;;;;;;46.57;43.40;;;;;;;13.83;100.00;103037.43;1993604;72;26264;-81
2021/08/24 00:35:03;;;;;;;43.50;40.60;;;;;;;13.71;100.00;103037.22;1993596;72;26185;-81
2021/08/24 00:37:33;;;;;;;44.77;41.60;;;;;;;13.81;100.00;103041.59;1993617;72;26200;-81
2021/08/24 00:40:04;;;;;;;45.47;42.10;;;;;;;13.86;100.00;103038.89;1989975;72;26201;-81
2021/08/24 00:42:35;;;;;;;46.03;42.80;;;;;;;13.90;100.00;103042.87;1882410;76;26258;-81
2021/08/24 00:45:08;;;;;;;46.33;43.30;;;;;;;13.76;100.00;103024.20;1916733;74;26299;-81
2021/08/24 00:47:41;;;;;;;44.40;41.30;;;;;;;13.82;100.00;103048.30;1958325;72;26272;-80
2021/08/24 00:50:17;;;;;;;45.40;42.27;;;;;;;13.77;100.00;103048.24;1882374;76;26205;-80
2021/08/24 00:52:49;;;;;;;45.00;42.10;;;;;;;13.77;100.00;103050.19;1958294;73;26711;-81
2021/08/24 00:55:21;;;;;;;44.40;41.53;;;;;;;13.80;100.00;103048.27;1882010;76;26203;-80
2021/08/24 01:00:48;;;;;;;47.20;44.10;;;;;;;13.85;100.00;103036.64;1971869;73;33470;-80
2021/08/24 01:06:22;;;;;;;46.43;43.43;;;;;;;13.66;100.00;103041.62;1972024;72;33545;-80
2021/08/24 01:08:58;;;;;;;47.50;44.00;;;;;;;13.63;100.00;103046.87;1934728;74;26222;-80
2021/08/24 01:11:31;;;;;;;45.27;42.23;;;;;;;13.64;100.00;103053.61;1934454;74;26257;-79
2021/08/24 01:14:07;;;;;;;45.80;42.80;;;;;;;13.53;100.00;103046.13;1934759;74;26219;-79
2021/08/24 01:16:41;;;;;;;48.07;44.27;;;;;;;13.50;100.00;103054.17;1934388;74;26188;-79
2021/08/24 01:19:25;;;;;;;46.03;43.03;;;;;;;13.42;100.00;103051.78;1934615;74;26227;-80
2021/08/24 01:22:09;;;;;;;45.00;42.00;;;;;;;13.50;100.00;103050.83;1932680;74;26265;-80
2021/08/24 01:24:42;;;;;;;45.70;42.57;;;;;;;13.41;100.00;103055.12;1934432;74;26278;-80
2021/08/24 01:30:19;;;;;;;46.23;42.93;;;;;;;13.69;100.00;103038.89;1972004;73;32952;-79
2021/08/24 01:36:17;;;;;;;44.60;41.63;;;;;;;13.77;100.00;103027.84;1971878;73;32951;-79
2021/08/24 01:41:57;;;;;;;46.20;43.00;;;;;;;13.91;100.00;103017.45;1971814;73;32949;-81
2021/08/24 01:47:26;;;;;;;45.87;42.80;;;;;;;13.82;100.00;103022.34;1972011;73;32939;-80
2021/08/24 01:49:59;;;;;;;43.73;40.73;;;;;;;13.98;100.00;103030.71;1934579;74;26184;-80
2021/08/24 01:52:33;;;;;;;45.00;41.93;;;;;;;13.95;100.00;103024.76;1934719;74;26297;-80
2021/08/24 01:55:06;;;;;;;44.80;41.70;;;;;;;14.03;100.00;103025.76;1934607;74;26663;-80
2021/08/24 01:57:40;;;;;;;47.57;44.40;;;;;;;14.05;100.00;103029.13;1934600;74;26610;-80
2021/08/24 02:03:14;;;;;;;45.57;42.60;;;;;;;14.33;100.00;103019.77;1971840;73;33010;-80
2021/08/24 02:08:43;;;;;;;45.23;42.23;;;;;;;14.59;100.00;103022.67;1971852;73;32931;-80
2021/08/24 02:14:11;;;;;;;44.93;41.77;;;;;;;14.76;100.00;103022.61;1972001;73;33398;-80
2021/08/24 02:19:39;;;;;;;45.20;42.00;;;;;;;15.10;100.00;103023.33;1972064;73;33016;-80
2021/08/24 02:25:10;;;;;;;45.13;41.63;;;;;;;15.13;100.00;103020.55;1971779;73;33041;-80
2021/08/24 02:30:38;;;;;;;47.20;43.97;;;;;;;15.22;100.00;103028.77;1972000;73;33418;-81
2021/08/24 02:36:05;;;;;;;44.80;41.73;;;;;;;15.27;100.00;103026.87;1972024;73;33507;-82
2021/08/24 02:41:36;;;;;;;45.67;42.37;;;;;;;15.37;100.00;103027.52;1951118;73;33543;-82
2021/08/24 02:47:04;;;;;;;46.67;43.33;;;;;;;15.53;100.00;103027.16;1971885;73;33003;-80
2021/08/24 02:52:29;;;;;;;45.80;42.30;;;;;;;15.62;100.00;103031.98;1972017;72;33571;-81
2021/08/24 02:57:54;;;;;;;46.60;42.97;;;;;;;15.69;100.00;103039.64;1971798;73;33506;-81
2021/08/24 03:03:19;;;;;;;46.60;43.40;;;;;;;15.72;100.00;103033.49;1972152;73;32982;-81
2021/08/24 03:08:45;;;;;;;43.17;40.03;;;;;;;15.77;100.00;103032.14;1971860;73;33022;-81
2021/08/24 03:14:17;;;;;;;46.97;43.67;;;;;;;15.75;100.00;103010.53;1971956;73;32931;-81
2021/08/24 03:16:50;;;;;;;46.90;43.53;;;;;;;15.83;100.00;103033.86;1934686;74;26186;-79
2021/08/24 03:22:17;;;;;;;47.07;43.43;;;;;;;15.84;100.00;103028.55;1971824;73;32911;-80
2021/08/24 03:27:45;;;;;;;47.90;44.50;;;;;;;15.93;100.00;103031.15;1971896;73;33385;-81
2021/08/24 03:33:13;;;;;;;47.13;43.63;;;;;;;16.01;100.00;103035.95;1971813;73;32897;-80
2021/08/24 03:38:38;;;;;;;47.53;44.17;;;;;;;16.02;100.00;103033.45;1972013;73;33413;-81
2021/08/24 03:44:06;;;;;;;45.83;42.60;;;;;;;16.12;100.00;103030.73;1971871;73;32908;-79
2021/08/24 03:49:30;;;;;;;45.60;42.40;;;;;;;16.11;100.00;103029.03;1971797;73;33013;-80
2021/08/24 03:54:56;;;;;;;46.43;43.10;;;;;;;16.13;100.00;103034.65;1972119;73;33021;-79
2021/08/24 04:00:21;;;;;;;45.37;42.37;;;;;;;16.07;100.00;103027.33;1963253;73;39485;-79
2021/08/24 04:05:45;;;;;;;45.97;42.73;;;;;;;16.17;100.00;103032.98;1971770;72;33005;-80
2021/08/24 04:11:11;;;;;;;45.03;41.97;;;;;;;16.15;100.00;103028.23;1972001;73;30977;-81
2021/08/24 04:16:35;;;;;;;42.77;39.60;;;;;;;16.06;100.00;103021.98;1971784;72;32927;-81
2021/08/24 04:22:03;;;;;;;43.70;40.50;;;;;;;15.96;100.00;103017.14;1964278;71;32972;-79
2021/08/24 04:27:50;;;;;;;44.57;41.17;;;;;;;15.77;100.00;103013.92;2015949;71;32926;-87
2021/08/24 04:33:21;;;;;;;43.63;40.53;;;;;;;15.55;100.00;103017.92;1972016;73;33413;-80
2021/08/24 04:38:41;;;;;;;45.37;42.00;;;;;;;15.23;100.00;103023.47;1971870;73;33038;-80
2021/08/24 04:44:06;;;;;;;45.33;41.97;;;;;;;15.17;100.00;103018.35;1972024;73;33160;-80
2021/08/24 04:49:31;;;;;;;43.57;40.43;;;;;;;15.02;100.00;103016.77;1971849;73;32948;-80
2021/08/24 04:55:02;;;;;;;45.07;41.57;;;;;;;14.86;100.00;103018.55;1971847;73;32987;-81
2021/08/24 05:00:33;;;;;;;44.87;41.67;;;;;;;14.90;100.00;103021.12;1972135;73;33484;-81
2021/08/24 05:06:01;;;;;;;44.33;41.03;;;;;;;14.71;100.00;103023.97;1971880;73;33032;-81
2021/08/24 05:11:25;;;;;;;43.80;40.60;;;;;;;14.59;100.00;103034.41;1971844;73;33523;-80
2021/08/24 05:16:54;;;;;;;43.37;40.07;;;;;;;14.62;100.00;103037.27;1971862;73;32932;-80
2021/08/24 05:22:19;;;;;;;47.63;44.30;;;;;;;14.35;100.00;103038.52;1971860;73;32918;-81
2021/08/24 05:27:44;;;;;;;46.50;43.30;;;;;;;14.29;100.00;103032.58;1971992;73;32982;-80
2021/08/24 05:33:11;;;;;;;46.00;42.60;;;;;;;14.28;100.00;103038.72;1971891;73;33002;-80
2021/08/24 05:38:37;;;;;;;46.53;42.93;;;;;;;14.34;100.00;103036.28;1971877;73;33058;-79
2021/08/24 05:44:01;;;;;;;44.93;41.43;;;;;;;14.43;100.00;103043.16;1971872;73;32984;-80
2021/08/24 05:49:32;;;;;;;43.77;40.67;;;;;;;14.41;100.00;103050.97;1971864;72;32968;-79
2021/08/24 05:55:02;;;;;;;45.13;41.83;;;;;;;14.23;100.00;103053.16;1971752;72;32969;-76
2021/08/24 06:00:37;;;;;;;46.87;43.50;;;;;;;14.27;100.00;103048.75;1978043;72;33479;-77
2021/08/24 06:06:05;;;;;;;48.77;45.33;;;;;;;14.33;100.00;103043.55;1972047;73;32924;-80
2021/08/24 06:11:34;;;;;;;47.67;44.17;;;;;;;14.46;100.00;103041.81;1941179;74;32996;-76
2021/08/24 06:17:03;;;;;;;46.63;43.20;;;;;;;14.61;100.00;103042.01;1971981;72;32977;-75
2021/08/24 06:22:27;;;;;;;47.00;43.50;;;;;;;14.87;100.00;103044.59;1972230;73;32931;-80
2021/08/24 06:27:54;;;;;;;45.77;42.33;;;;;;;14.95;100.00;103048.32;1972412;73;33070;-77
2021/08/24 06:33:22;;;;;;;45.67;42.30;;;;;;;14.99;100.00;103050.89;1972268;73;32977;-85
2021/08/24 06:38:50;;;;;;;44.93;41.53;;;;;;;15.33;100.00;103051.55;1972039;73;33011;-83
2021/08/24 06:44:16;;;;;;;44.73;41.53;;;;;;;15.38;100.00;103054.42;1971967;73;32936;-76
2021/08/24 06:49:33;;;;;;;42.60;39.50;;;;;;;15.55;100.00;103066.94;1977688;72;32772;-79
2021/08/24 06:54:57;;;;;;;43.23;39.93;;;;;;;15.73;100.00;103070.77;1971908;73;33099;-80
2021/08/24 07:00:29;;;;;;;43.20;39.90;;;;;;;15.84;100.00;103072.55;1971935;73;33404;-79
2021/08/24 07:05:54;;;;;;;41.27;38.23;;;;;;;15.92;100.00;103070.09;1971996;73;32910;-79
2021/08/24 07:11:18;;;;;;;42.30;39.00;;;;;;;15.86;100.00;103071.19;1972112;73;33016;-80
2021/08/24 07:16:46;;;;;;;43.33;39.70;;;;;;;16.08;100.00;103064.63;1972103;73;31465;-80
2021/08/24 07:22:11;;;;;;;43.47;40.07;;;;;;;16.06;100.00;103063.48;1971981;73;33040;-79
2021/08/24 07:27:36;;;;;;;43.07;39.80;;;;;;;16.32;100.00;103074.34;1971954;73;32999;-81
2021/08/24 07:33:05;;;;;;;43.20;39.70;;;;;;;16.44;100.00;103073.57;1971910;73;33044;-79
2021/08/24 07:38:31;;;;;;;42.33;39.13;;;;;;;16.58;100.00;103080.44;1972157;73;33524;-76
2021/08/24 07:43:56;;;;;;;44.73;41.53;;;;;;;16.51;100.00;103077.55;1972135;72;33702;-76
2021/08/24 07:49:22;;;;;;;41.87;38.63;;;;;;;16.52;100.00;103084.28;1972250;73;32989;-72
2021/08/24 07:54:47;;;;;;;41.30;38.10;;;;;;;16.81;100.00;103079.98;1972235;73;33464;-78
2021/08/24 08:00:13;;;;;;;40.60;37.53;;;;;;;16.98;100.00;103076.16;1972246;73;33389;-79
2021/08/24 08:05:38;;;;;;;42.23;38.93;;;;;;;17.12;100.00;103072.55;1972038;73;31145;-76
2021/08/24 08:11:02;;;;;;;42.97;39.80;;;;;;;17.04;100.00;103067.46;1971964;73;30971;-77
2021/08/24 08:16:28;;;;;;;41.73;38.40;;;;;;;17.31;100.00;103081.32;1972168;72;33410;-76
2021/08/24 08:21:53;;;;;;;41.37;38.33;;;;;;;17.29;100.00;103072.31;1971965;73;31132;-75
2021/08/24 08:27:23;;;;;;;42.50;39.13;;;;;;;17.62;100.00;103069.63;1972167;73;33442;-75
2021/08/24 08:32:48;;;;;;;41.83;38.83;;;;;;;17.73;100.00;103063.73;1972007;73;30951;-76
2021/08/24 08:38:14;;;;;;;40.30;37.27;;;;;;;17.72;100.00;103062.03;1972171;73;31034;-76
2021/08/24 08:43:46;;;;;;;40.93;38.10;;;;;;;17.79;100.00;103064.59;1971993;73;30971;-76
2021/08/24 08:46:21;;;;;;;39.77;36.80;;;;;;;17.71;100.00;103069.36;1934853;74;24121;-75
2021/08/24 08:48:57;;;;;;;43.40;39.83;;;;;;;17.77;100.00;103075.81;1934810;74;24140;-76
2021/08/24 08:51:38;;;;;;;40.33;37.37;;;;;;;17.80;100.00;103066.84;1934170;74;24214;-76
2021/08/24 08:54:17;;;;;;;41.10;38.07;;;;;;;17.83;100.00;103073.30;1934849;74;24130;-74
2021/08/24 08:59:47;;;;;;;42.10;38.90;;;;;;;18.02;100.00;103068.79;1972029;72;31030;-76
2021/08/24 09:02:25;;;;;;;37.97;35.07;;;;;;;18.12;100.00;103070.20;1934896;74;24136;-76
2021/08/24 09:07:53;;;;;;;40.53;37.43;;;;;;;18.17;100.00;103063.17;1972074;73;31047;-77
2021/08/24 09:13:24;;;;;;;38.37;35.67;;;;;;;18.23;100.00;103062.02;1972005;73;30960;-76
2021/08/24 09:18:54;;;;;;;38.20;35.40;;;;;;;18.27;100.00;103062.32;1972003;73;31036;-76
2021/08/24 09:24:23;;;;;;;38.57;35.73;;;;;;;18.37;100.00;103060.87;1972202;73;33026;-75
2021/08/24 09:29:53;;;;;;;37.80;35.27;;;;;;;18.60;100.00;103055.52;1971931;73;30955;-76
2021/08/24 09:35:31;;;;;;;37.27;34.40;;;;;;;18.85;100.00;103046.70;1972147;73;31009;-75
2021/08/24 09:41:00;;;;;;;45.13;42.03;;;;;;;19.04;100.00;103042.94;1966192;71;31484;-76
2021/08/24 09:46:33;;;;;;;43.30;40.40;;;;;;;19.41;100.00;103045.28;1972101;73;31470;-74
2021/08/24 09:52:06;;;;;;;43.83;40.93;;;;;;;19.83;100.00;103043.30;1972122;73;30992;-75
2021/08/24 09:57:35;;;;;;;39.40;36.50;;;;;;;19.82;100.00;103041.61;1972031;73;30967;-75
2021/08/24 10:03:04;;;;;;;49.17;46.27;;;;;;;20.28;100.00;103027.09;1972255;73;30992;-75
2021/08/24 10:08:36;;;;;;;36.70;34.20;;;;;;;20.62;100.00;103021.38;1971848;73;30976;-75
2021/08/24 10:14:13;;;;;;;34.93;32.83;;;;;;;20.55;100.00;103020.31;1972016;73;30927;-76
2021/08/24 10:19:44;;;;;;;33.10;31.03;;;;;;;20.75;100.00;103021.47;1971976;73;30938;-76
2021/08/24 10:25:14;;;;;;;32.67;30.53;;;;;;;21.05;100.00;103005.28;1971953;73;30969;-77
2021/08/24 10:30:44;;;;;;;32.50;30.53;;;;;;;21.14;100.00;102997.81;1972098;73;30938;-77
2021/08/24 10:36:31;;;;;;;32.77;30.50;;;;;;;21.00;100.00;102996.88;1972000;73;30916;-77
2021/08/24 10:42:06;;;;;;;34.70;32.37;;;;;;;20.98;100.00;103000.56;1945974;73;31085;-77
2021/08/24 10:47:46;;;;;;;33.20;31.17;;;;;;;21.04;100.00;103002.19;1972137;73;31035;-77
2021/08/24 10:50:20;;;;;;;33.30;31.20;;;;;;;20.86;100.00;103002.42;1933852;74;24164;-77
2021/08/24 10:52:53;;;;;;;34.60;32.50;;;;;;;20.79;100.00;103001.36;1934799;74;24210;-77
2021/08/24 10:58:23;;;;;;;35.67;33.43;;;;;;;20.58;100.00;103001.34;1971973;73;30919;-76
2021/08/24 11:00:58;;;;;;;34.00;31.80;;;;;;;20.54;100.00;103010.75;1935025;74;24132;-75
2021/08/24 11:03:39;;;;;;;33.67;31.50;;;;;;;20.78;100.00;103001.11;1934784;74;24149;-75
2021/08/24 11:06:14;;;;;;;31.93;30.10;;;;;;;21.08;100.00;102994.77;1934303;74;24144;-75
2021/08/24 11:11:47;;;;;;;33.83;31.67;;;;;;;21.35;100.00;102977.41;1972181;73;31430;-76
2021/08/24 11:14:23;;;;;;;32.97;30.80;;;;;;;21.37;100.00;102979.09;1935235;74;24191;-77
2021/08/24 11:16:58;;;;;;;30.70;28.80;;;;;;;21.43;100.00;102986.37;1934339;74;24226;-77
2021/08/24 11:19:40;;;;;;;32.57;30.67;;;;;;;21.61;100.00;102975.58;1934550;74;24646;-77
2021/08/24 11:22:13;;;;;;;31.43;29.37;;;;;;;21.78;100.00;102973.02;1932681;74;24699;-76
2021/08/24 11:24:53;;;;;;;30.63;28.80;;;;;;;21.85;100.00;102976.88;1934620;74;24140;-77
2021/08/24 11:27:25;;;;;;;30.43;28.53;;;;;;;21.66;100.00;102971.25;1934944;74;24652;-77
2021/08/24 11:29:58;;;;;;;30.27;28.57;;;;;;;21.34;100.00;102970.67;1934772;74;24207;-77
2021/08/24 11:32:31;;;;;;;30.83;28.90;;;;;;;21.12;100.00;102962.80;1934874;74;24269;-77
2021/08/24 11:38:00;;;;;;;29.53;27.63;;;;;;;20.90;100.00;102962.53;1972042;73;31042;-77
2021/08/24 11:43:34;;;;;;;31.90;29.90;;;;;;;20.95;100.00;102954.55;1971985;73;30942;-77
2021/08/24 11:49:05;;;;;;;30.70;28.90;;;;;;;21.13;100.00;102950.36;1971978;73;30982;-77
2021/08/24 11:54:39;;;;;;;28.90;27.10;;;;;;;21.46;100.00;102937.66;1972226;72;31545;-77
2021/08/24 12:00:09;;;;;;;29.03;27.40;;;;;;;21.55;100.00;102940.91;1972035;73;30939;-76
2021/08/24 12:05:37;;;;;;;29.70;27.90;;;;;;;21.33;100.00;102933.06;1972086;73;31488;-76
2021/08/24 12:11:07;;;;;;;25.57;24.27;;;;;;;21.46;100.00;102925.78;1971996;73;30963;-77
2021/08/24 12:16:34;;;;;;;27.23;25.73;;;;;;;21.43;100.00;102924.16;1972212;73;31438;-77
2021/08/24 12:22:29;;;;;;;25.47;24.17;;;;;;;21.59;100.00;102915.09;1972017;73;31097;-77
2021/08/24 12:28:00;;;;;;;24.47;23.22;;;;;;;21.78;100.00;102911.61;1972038;72;30992;-76
2021/08/24 12:33:32;;;;;;;24.30;22.90;;;;;;;22.08;100.00;102914.47;1971946;73;31062;-77
2021/08/24 12:36:23;;;;;;;22.80;21.52;;;;;;;22.12;100.00;102905.61;1935071;74;24117;-77
2021/08/24 12:41:48;;;;;;;22.80;21.60;;;;;;;22.07;100.00;102897.81;1971908;73;31002;-77
2021/08/24 12:51:04;;;;;;;21.45;20.35;;;;;;;22.06;100.00;102894.71;2061403;69;33154;-77
2021/08/24 12:56:49;;;;;;;22.10;20.90;;;;;;;22.30;100.00;102891.09;1972148;73;31415;-77
2021/08/24 13:02:40;;;;;;;21.48;20.37;;;;;;;22.59;100.00;102890.16;1971932;73;30953;-77
2021/08/24 13:08:23;;;;;;;22.17;21.17;;;;;;;22.74;100.00;102886.76;1971949;72;30985;-77
2021/08/24 13:13:55;;;;;;;20.95;19.60;;;;;;;22.41;100.00;102881.81;1972130;73;31474;-77
2021/08/24 13:19:25;;;;;;;19.53;18.43;;;;;;;22.44;100.00;102884.84;1971917;73;31435;-77
2021/08/24 13:24:53;;;;;;;18.85;17.95;;;;;;;22.60;100.00;102870.59;1972120;73;31510;-75
2021/08/24 13:27:29;;;;;;;19.35;18.15;;;;;;;22.69;100.00;102874.96;1934728;74;24125;-76
2021/08/24 13:33:00;;;;;;;17.80;16.80;;;;;;;22.79;100.00;102866.81;1971924;73;31098;-75
2021/08/24 13:38:31;;;;;;;17.23;16.42;;;;;;;22.62;100.00;102864.05;1971941;73;30988;-77
2021/08/24 13:44:04;;;;;;;16.80;16.00;;;;;;;22.80;100.00;102856.58;1971902;73;30991;-78
2021/08/24 13:49:32;;;;;;;15.93;15.15;;;;;;;22.44;100.00;102860.77;1972018;73;31152;-77
2021/08/24 13:54:58;;;;;;;15.48;14.68;;;;;;;22.63;100.00;102845.86;1972013;73;31180;-77
2021/08/24 14:00:25;;;;;;;16.00;15.20;;;;;;;22.66;100.00;102842.42;1971935;73;31137;-77
2021/08/24 14:05:56;;;;;;;15.83;15.03;;;;;;;22.49;100.00;102842.25;1972208;72;31072;-77
2021/08/24 14:11:23;;;;;;;16.17;15.28;;;;;;;22.37;100.00;102841.96;1972014;73;30983;-76
2021/08/24 14:16:48;;;;;;;15.23;14.53;;;;;;;22.62;100.00;102837.13;1971918;72;30967;-77
2021/08/24 14:22:16;;;;;;;14.53;13.62;;;;;;;22.53;100.00;102841.88;1971968;73;31066;-77
2021/08/24 14:27:42;;;;;;;14.60;13.88;;;;;;;22.41;100.00;102826.58;1972128;73;31078;-75
2021/08/24 14:33:19;;;;;;;14.30;13.43;;;;;;;22.71;100.00;102822.23;1972170;72;31059;-77
2021/08/24 14:38:53;;;;;;;13.43;12.73;;;;;;;22.76;100.00;102819.28;1972023;73;31056;-77
2021/08/24 14:44:23;;;;;;;12.98;12.30;;;;;;;22.50;100.00;102807.69;1972018;73;30989;-77
2021/08/24 14:49:51;;;;;;;13.15;12.45;;;;;;;22.30;100.00;102817.46;1972104;72;31022;-77
2021/08/24 14:52:27;;;;;;;13.95;13.35;;;;;;;22.24;100.00;102814.50;1935013;74;24229;-77
2021/08/24 15:01:16;;;;;;;12.93;12.28;;;;;;;22.87;100.00;102800.86;2061139;69;30587;-76
2021/08/24 15:03:56;;;;;;;12.55;11.85;;;;;;;22.56;100.00;102796.48;1950606;73;24160;-76
2021/08/24 15:06:44;;;;;;;13.25;12.43;;;;;;;22.38;100.00;102798.91;2030493;71;24595;-76
2021/08/24 15:09:34;;;;;;;12.53;11.95;;;;;;;22.26;100.00;102802.27;2030621;71;24097;-75
2021/08/24 15:12:07;;;;;;;13.05;12.25;;;;;;;22.26;100.00;102793.77;2030612;70;24170;-76
2021/08/24 15:14:40;;;;;;;12.93;12.23;;;;;;;22.49;100.00;102789.84;2028689;71;24141;-76
2021/08/24 15:17:13;;;;;;;12.43;11.78;;;;;;;22.71;100.00;102781.15;2029871;71;24178;-76
2021/08/24 15:19:47;;;;;;;12.25;11.55;;;;;;;22.74;100.00;102781.34;2030646;71;24118;-75
2021/08/24 15:22:24;;;;;;;12.40;11.78;;;;;;;22.75;100.00;102781.60;2029346;71;24160;-75
2021/08/24 15:24:57;;;;;;;12.15;11.55;;;;;;;22.64;100.00;102782.39;2030734;71;24685;-75
2021/08/24 15:27:31;;;;;;;12.53;11.93;;;;;;;22.50;100.00;102785.86;2030796;71;24101;-75
2021/08/24 15:30:06;;;;;;;12.10;11.50;;;;;;;22.47;100.00;102777.14;2030694;71;24178;-75
2021/08/24 15:32:40;;;;;;;12.30;11.50;;;;;;;22.63;100.00;102775.03;1950764;73;24225;-75
2021/08/24 15:35:14;;;;;;;12.60;11.70;;;;;;;22.80;100.00;102772.14;2030693;71;24528;-76
2021/08/24 15:37:44;;;;;;;12.93;12.03;;;;;;;22.85;100.00;102762.91;1950728;73;24655;-76
2021/08/24 15:40:17;;;;;;;12.18;11.53;;;;;;;22.75;100.00;102771.69;1950520;73;24172;-75
2021/08/24 15:42:48;;;;;;;12.23;11.55;;;;;;;22.60;100.00;102768.60;1950674;73;24222;-75
2021/08/24 15:48:17;;;;;;;12.73;12.03;;;;;;;22.18;100.00;102761.96;1972122;73;31520;-77
2021/08/24 15:53:42;;;;;;;12.43;11.80;;;;;;;22.26;100.00;102751.30;1971882;73;31531;-77
2021/08/24 15:59:06;;;;;;;11.53;10.93;;;;;;;22.62;100.00;102745.05;1971892;72;31099;-75
2021/08/24 16:04:33;;;;;;;12.05;11.45;;;;;;;22.86;100.00;102739.08;1972094;73;31541;-77
2021/08/24 16:09:59;;;;;;;13.72;13.13;;;;;;;22.57;100.00;102740.09;1972224;73;30978;-77
2021/08/24 16:15:23;;;;;;;13.38;12.63;;;;;;;22.57;100.00;102733.00;1972178;73;31050;-75
2021/08/24 16:20:51;;;;;;;12.55;11.85;;;;;;;22.62;100.00;102725.80;1972171;73;31462;-77
2021/08/24 16:26:17;;;;;;;12.05;11.55;;;;;;;22.86;100.00;102716.98;1971856;73;30947;-76
2021/08/24 16:31:48;;;;;;;12.18;11.63;;;;;;;22.64;100.00;102724.88;1972150;73;31006;-77
2021/08/24 16:37:13;;;;;;;12.37;11.68;;;;;;;22.30;100.00;102729.68;1972214;73;31049;-77
2021/08/24 16:42:38;;;;;;;12.28;11.68;;;;;;;22.17;100.00;102727.15;1971955;73;31121;-77
2021/08/24 16:48:06;;;;;;;11.63;11.03;;;;;;;21.97;100.00;102731.03;1972109;73;31011;-77
2021/08/24 16:53:40;;;;;;;11.80;11.25;;;;;;;21.95;100.00;102727.69;1972150;73;31643;-78
2021/08/24 16:59:08;;;;;;;11.53;10.90;;;;;;;22.26;100.00;102724.40;1972071;73;30962;-75
2021/08/24 17:04:33;;;;;;;10.43;9.83;;;;;;;22.39;100.00;102719.84;1935627;72;92213;-70
2021/08/24 17:09:57;;;;;;;10.03;9.50;;;;;;;22.28;100.00;102720.69;1971733;73;31163;-74
2021/08/24 17:15:25;;;;;;;11.83;11.33;;;;;;;22.27;100.00;102715.33;1971789;73;30953;-73
2021/08/24 17:20:53;;;;;;;11.30;10.70;;;;;;;22.43;100.00;102719.47;1968590;73;31536;-71
2021/08/24 17:26:20;;;;;;;11.20;10.58;;;;;;;22.44;100.00;102729.06;1972100;73;31435;-72
2021/08/24 17:31:46;;;;;;;11.75;11.15;;;;;;;22.23;100.00;102745.70;1971999;73;31023;-73
2021/08/24 17:37:11;;;;;;;12.68;11.88;;;;;;;21.99;100.00;102749.95;1971884;73;30952;-74
2021/08/24 17:42:35;;;;;;;13.95;12.95;;;;;;;22.09;100.00;102745.46;1971854;72;30952;-73
2021/08/24 17:48:06;;;;;;;13.58;12.88;;;;;;;22.09;100.00;102751.97;1971736;73;31024;-75
2021/08/24 17:53:29;;;;;;;14.00;13.20;;;;;;;22.10;100.00;102749.41;1971875;73;31013;-74
2021/08/24 17:58:53;;;;;;;14.30;13.60;;;;;;;22.08;100.00;102751.70;1971992;73;30975;-73
2021/08/24 18:04:18;;;;;;;14.85;14.10;;;;;;;21.92;100.00;102753.20;1971881;73;31540;-70
2021/08/24 18:09:43;;;;;;;15.48;14.65;;;;;;;21.84;100.00;102749.66;1972044;72;30998;-75
2021/08/24 18:15:31;;;;;;;16.07;15.08;;;;;;;21.85;100.00;102748.52;2016151;71;30918;-71
2021/08/24 18:20:56;;;;;;;15.72;14.80;;;;;;;21.65;100.00;102751.78;1970166;71;30988;-72
2021/08/24 18:26:20;;;;;;;18.35;17.25;;;;;;;21.18;100.00;102750.97;1971916;73;31083;-72
2021/08/24 18:32:06;;;;;;;20.30;19.10;;;;;;;20.65;100.00;102764.60;2016218;71;31123;-70
2021/08/24 18:37:33;;;;;;;19.60;18.60;;;;;;;20.57;100.00;102776.59;1971979;73;31097;-71
2021/08/24 18:42:59;;;;;;;19.20;18.03;;;;;;;20.39;100.00;102778.28;1972087;73;31547;-70
2021/08/24 18:48:31;;;;;;;18.27;17.30;;;;;;;20.15;100.00;102784.50;1972026;73;31490;-72
2021/08/24 18:53:59;;;;;;;16.10;15.30;;;;;;;20.02;100.00;102797.97;1971866;73;30981;-75
2021/08/24 18:59:43;;;;;;;16.50;15.60;;;;;;;19.96;100.00;102796.34;2014425;71;30907;-68
2021/08/24 19:05:09;;;;;;;15.67;14.97;;;;;;;19.90;100.00;102798.94;1972070;73;31046;-73
2021/08/24 19:10:34;;;;;;;15.90;15.10;;;;;;;19.84;100.00;102809.47;1972037;73;31163;-74
2021/08/24 19:15:59;;;;;;;16.87;16.07;;;;;;;19.68;100.00;102809.95;1972024;73;31498;-71
2021/08/24 19:21:25;;;;;;;17.07;16.10;;;;;;;19.43;100.00;102816.67;1967814;71;30995;-72
2021/08/24 19:26:52;;;;;;;17.80;16.67;;;;;;;19.26;100.00;102819.06;1971813;73;31046;-72
2021/08/24 19:32:17;;;;;;;18.60;17.77;;;;;;;19.12;100.00;102821.75;1971804;73;30982;-72
2021/08/24 19:37:41;;;;;;;19.37;18.30;;;;;;;18.97;100.00;102821.86;1971949;73;31019;-71
2021/08/24 19:43:07;;;;;;;19.57;18.67;;;;;;;18.82;100.00;102824.81;1972147;73;31557;-71
2021/08/24 19:48:33;;;;;;;19.80;18.60;;;;;;;18.74;100.00;102827.66;1971912;73;31036;-73
2021/08/24 19:53:58;;;;;;;19.77;18.87;;;;;;;18.72;100.00;102829.09;1972034;73;31036;-70
2021/08/24 19:59:23;;;;;;;22.70;21.23;;;;;;;18.59;100.00;102827.78;1971939;73;33468;-74
2021/08/24 20:04:48;;;;;;;22.03;21.03;;;;;;;18.48;100.00;102828.95;1971825;73;30960;-72
2021/08/24 20:10:13;;;;;;;25.27;23.87;;;;;;;18.19;100.00;102833.87;1971892;73;31071;-70
2021/08/24 20:15:40;;;;;;;26.63;25.13;;;;;;;17.95;100.00;102838.48;1971790;72;31037;-74
2021/08/24 20:21:04;;;;;;;28.97;27.20;;;;;;;18.13;100.00;102839.26;1971789;72;31076;-71
2021/08/24 20:26:31;;;;;;;31.00;29.13;;;;;;;17.80;100.00;102851.76;1972066;73;31034;-68
2021/08/24 20:31:56;;;;;;;34.83;32.83;;;;;;;17.74;100.00;102851.77;1971768;73;30952;-76
2021/08/24 20:37:22;;;;;;;35.40;33.30;;;;;;;17.75;100.00;102849.80;1971817;73;30932;-72
2021/08/24 20:42:47;;;;;;;33.63;31.73;;;;;;;17.85;100.00;102843.28;1971954;73;31433;-73
2021/08/24 20:48:14;;;;;;;33.03;31.13;;;;;;;17.64;100.00;102848.13;1971962;73;30970;-70
2021/08/24 20:53:39;;;;;;;32.27;30.37;;;;;;;17.71;100.00;102854.31;1971784;73;31063;-75
2021/08/24 20:59:04;;;;;;;32.97;30.93;;;;;;;17.60;100.00;102857.69;1971880;72;31035;-71
2021/08/24 21:04:32;;;;;;;34.47;32.50;;;;;;;17.51;100.00;102869.75;1972049;72;31037;-69
2021/08/24 21:09:56;;;;;;;35.23;33.03;;;;;;;17.26;100.00;102877.64;1971889;73;30997;-77
2021/08/24 21:15:23;;;;;;;36.83;34.67;;;;;;;17.14;100.00;102882.14;1972119;73;33352;-74